METAR Data
IDs: Format: Raw Decoded Include TAF

Data at: 0632 UTC 01 Aug 2021

EKYT 010620Z AUTO 26015KT 9999 BKN048/// 15/09 Q0999